Time;durP1;ratioP1;P1;durP2;ratioP2;P2;SDS_P1;SDS_P2;PMS_P1;PMS_P2;Temp;Humidity;BMP_temperature;BMP_pressure;BME280_temperature;BME280_humidity;BME280_pressure;Samples;Min_cycle;Max_cycle;Signal;HPM_P1;HPM_P2
2023/02/25 00:00:33;;;;;;;7.73;4.97;;;3.60;99.90;3.30;98502.00;;;;4936773;28;92818;-65
2023/02/25 00:02:59;;;;;;;7.70;4.70;;;3.50;99.90;3.30;98501.00;;;;4935029;28;92833;-64
2023/02/25 00:05:25;;;;;;;6.00;4.77;;;3.50;99.90;3.30;98490.00;;;;4936519;28;94255;-64
2023/02/25 00:07:54;;;;;;;9.37;5.00;;;3.40;99.90;3.30;98493.00;;;;4937201;28;115877;-65
2023/02/25 00:10:20;;;;;;;5.47;3.97;;;3.60;99.90;3.30;98490.00;;;;4935968;28;93210;-65
2023/02/25 00:12:45;;;;;;;9.93;5.97;;;3.50;99.90;3.30;98492.00;;;;4937254;28;93024;-64
2023/02/25 00:15:12;;;;;;;8.07;3.90;;;4.30;99.90;3.30;98487.00;;;;4947537;28;122211;-64
2023/02/25 00:17:38;;;;;;;7.23;4.27;;;3.50;99.90;3.30;98484.00;;;;4937456;28;93542;-65
2023/02/25 00:20:08;;;;;;;7.67;4.53;;;3.50;99.90;3.30;98488.00;;;;4931215;28;92910;-64
2023/02/25 00:22:34;;;;;;;5.50;3.80;;;3.50;99.90;3.30;98491.00;;;;4932497;28;93738;-65
2023/02/25 00:25:00;;;;;;;7.30;4.00;;;3.90;99.90;3.30;98497.00;;;;4935419;28;94618;-65
2023/02/25 00:27:27;;;;;;;5.40;4.40;;;3.60;99.90;3.40;98489.00;;;;4935770;28;121020;-65
2023/02/25 00:29:53;;;;;;;12.00;4.43;;;3.60;99.90;3.40;98492.00;;;;4940721;28;110223;-65
2023/02/25 00:32:20;;;;;;;10.00;4.23;;;3.60;99.90;3.40;98495.00;;;;4931314;28;109753;-66
2023/02/25 00:34:46;;;;;;;7.30;5.10;;;3.60;99.90;3.50;98482.00;;;;4947271;28;94615;-65
2023/02/25 00:37:13;;;;;;;9.93;4.43;;;4.10;99.90;3.50;98482.00;;;;4936196;28;93858;-65
2023/02/25 00:39:42;;;;;;;4.10;3.70;;;3.70;99.90;3.50;98485.00;;;;4934748;28;105349;-66
2023/02/25 00:42:13;;;;;;;10.40;4.70;;;3.70;99.90;3.50;98472.00;;;;4931380;28;92960;-66
2023/02/25 00:44:38;;;;;;;9.07;4.53;;;3.70;99.90;3.50;98470.00;;;;4932939;28;94099;-66
2023/02/25 00:47:05;;;;;;;7.70;4.00;;;3.60;99.90;3.50;98470.00;;;;4933146;28;94922;-64
2023/02/25 00:49:32;;;;;;;5.00;3.80;;;3.70;99.90;3.60;98466.00;;;;4936785;28;93010;-64
2023/02/25 00:51:58;;;;;;;15.80;4.40;;;3.70;99.90;3.50;98458.00;;;;4945142;28;92955;-65
2023/02/25 00:54:24;;;;;;;5.13;3.50;;;3.70;99.90;3.60;98455.00;;;;4934390;28;93140;-64
2023/02/25 00:56:50;;;;;;;8.37;2.97;;;3.80;99.90;3.60;98455.00;;;;4935289;28;120726;-65
2023/02/25 00:59:15;;;;;;;5.40;3.83;;;3.70;99.90;3.60;98453.00;;;;4936816;28;92850;-65
2023/02/25 01:01:41;;;;;;;6.00;4.10;;;3.80;99.90;3.60;98448.00;;;;4932778;28;112720;-66
2023/02/25 01:04:08;;;;;;;6.13;3.97;;;3.70;99.90;3.60;98439.00;;;;4934172;28;121183;-65
2023/02/25 01:06:36;;;;;;;5.03;3.90;;;3.90;99.90;3.60;98453.00;;;;4929600;28;105332;-65
2023/02/25 01:09:06;;;;;;;6.47;3.87;;;3.80;99.90;3.60;98450.00;;;;4919143;28;92823;-66
2023/02/25 01:11:35;;;;;;;9.47;4.20;;;3.90;99.90;3.70;98439.00;;;;4944198;28;93727;-67
2023/02/25 01:14:18;;;;;;;6.43;3.70;;;4.80;99.90;3.70;98449.00;;;;4933431;28;93200;-66
2023/02/25 01:16:45;;;;;;;3.67;3.23;;;4.00;99.90;3.70;98450.00;;;;4931923;28;93082;-67
2023/02/25 01:19:31;;;;;;;4.67;3.63;;;3.90;99.90;3.70;98450.00;;;;4931988;28;102456;-68
2023/02/25 01:21:58;;;;;;;7.27;3.87;;;3.90;99.90;3.70;98447.00;;;;4935026;28;108231;-68
2023/02/25 01:24:28;;;;;;;4.90;3.17;;;4.90;99.90;3.70;98455.00;;;;4936114;28;107107;-69
2023/02/25 01:26:57;;;;;;;4.43;2.90;;;3.80;99.90;3.70;98440.00;;;;4934559;28;93542;-69
2023/02/25 01:29:30;;;;;;;3.00;2.17;;;4.00;99.90;3.70;98457.00;;;;4942846;28;92107;-68
2023/02/25 01:31:59;;;;;;;12.50;2.90;;;4.30;99.90;3.70;98461.00;;;;4916588;28;93103;-68
2023/02/25 01:34:26;;;;;;;2.93;2.10;;;3.90;99.90;3.80;98452.00;;;;4935060;28;109273;-68
2023/02/25 01:36:52;;;;;;;3.50;1.93;;;4.70;99.90;3.80;98450.00;;;;4933819;28;93994;-68
2023/02/25 01:39:20;;;;;;;5.40;2.87;;;4.00;99.90;3.80;98445.00;;;;4934548;28;111665;-68
2023/02/25 01:41:50;;;;;;;6.40;2.30;;;4.70;99.90;3.80;98455.00;;;;4936387;28;92926;-67
2023/02/25 01:44:18;;;;;;;2.23;2.03;;;4.00;99.90;3.80;98454.00;;;;4931271;28;93172;-67
2023/02/25 01:46:47;;;;;;;7.33;3.50;;;3.90;99.90;3.80;98449.00;;;;4934503;28;93838;-67
2023/02/25 01:49:29;;;;;;;8.97;3.00;;;4.00;99.90;3.70;98446.00;;;;4929211;28;93017;-66
2023/02/25 01:52:06;;;;;;;8.80;2.47;;;4.00;99.90;3.70;98453.00;;;;4917294;28;92917;-67
2023/02/25 01:54:34;;;;;;;8.10;3.30;;;4.20;99.90;3.70;98453.00;;;;4934375;28;93183;-68
2023/02/25 01:57:02;;;;;;;6.03;3.63;;;4.80;99.90;3.70;98447.00;;;;4912605;28;100893;-68
2023/02/25 01:59:31;;;;;;;4.17;3.20;;;3.90;99.90;3.60;98435.00;;;;4919542;28;92799;-67
2023/02/25 02:01:57;;;;;;;11.47;2.77;;;3.90;99.90;3.60;98438.00;;;;4934252;28;108720;-68
2023/02/25 02:04:24;;;;;;;5.10;2.80;;;3.80;99.90;3.60;98437.00;;;;4916425;28;122192;-68
2023/02/25 02:06:51;;;;;;;5.27;2.90;;;3.80;99.90;3.60;98438.00;;;;4938580;28;122741;-67
2023/02/25 02:09:23;;;;;;;4.73;2.43;;;4.50;99.90;3.60;98438.00;;;;4919828;28;93325;-69
2023/02/25 02:11:48;;;;;;;3.20;2.53;;;3.70;99.90;3.50;98433.00;;;;4933849;28;96268;-71
2023/02/25 02:14:20;;;;;;;3.27;2.20;;;3.70;99.90;3.50;98429.00;;;;4932942;28;120929;-69
2023/02/25 02:17:08;;;;;;;3.60;2.73;;;4.50;99.90;3.40;98423.00;;;;4933794;28;115069;-70
2023/02/25 02:19:49;;;;;;;4.63;2.50;;;3.70;99.90;3.40;98416.00;;;;4937080;28;92143;-69
2023/02/25 02:22:30;;;;;;;2.93;2.30;;;3.60;99.90;3.40;98426.00;;;;4937385;28;92863;-68
2023/02/25 02:25:25;;;;;;;5.80;3.40;;;3.60;99.90;3.30;98430.00;;;;4912961;28;109042;-68
2023/02/25 02:28:25;;;;;;;5.00;2.27;;;3.50;99.90;3.20;98422.00;;;;4939449;28;94058;-66
2023/02/25 02:31:24;;;;;;;4.03;2.70;;;3.50;99.90;3.20;98414.00;;;;4915954;28;92881;-67
2023/02/25 02:34:27;;;;;;;3.37;2.60;;;3.50;99.90;3.20;98416.00;;;;4917615;28;93103;-66
2023/02/25 02:37:22;;;;;;;3.80;2.10;;;3.50;99.90;3.20;98422.00;;;;4934693;28;93057;-66
2023/02/25 02:40:36;;;;;;;2.57;2.17;;;3.40;99.90;3.10;98417.00;;;;4919033;28;107447;-66
2023/02/25 02:43:27;;;;;;;3.00;2.30;;;3.40;99.90;3.10;98426.00;;;;4919925;28;93226;-65
2023/02/25 02:46:19;;;;;;;5.70;3.23;;;3.40;99.90;3.10;98415.00;;;;4946778;28;101838;-66
2023/02/25 02:48:57;;;;;;;1.47;1.20;;;3.30;99.90;3.10;98415.00;;;;4941374;28;101299;-64
2023/02/25 02:51:33;;;;;;;3.60;2.13;;;3.30;99.90;3.00;98420.00;;;;4917725;28;116632;-65
2023/02/25 02:54:02;;;;;;;3.70;1.93;;;3.60;99.90;3.00;98418.00;;;;4919146;28;95844;-65
2023/02/25 02:56:31;;;;;;;6.67;2.77;;;3.20;99.90;3.00;98416.00;;;;4915685;28;102483;-65
2023/02/25 02:59:06;;;;;;;3.07;1.63;;;3.20;99.90;3.00;98434.00;;;;4918903;28;92833;-65
2023/02/25 03:01:41;;;;;;;2.13;1.60;;;3.20;99.90;3.00;98435.00;;;;4921898;28;93840;-65
2023/02/25 03:04:11;;;;;;;5.53;1.67;;;3.20;99.90;3.00;98444.00;;;;4948961;28;104817;-65
2023/02/25 03:06:42;;;;;;;1.53;1.43;;;3.20;99.90;2.90;98441.00;;;;4920488;28;93101;-66
2023/02/25 03:09:17;;;;;;;3.13;1.40;;;3.30;99.90;2.90;98447.00;;;;4932593;28;104378;-66
2023/02/25 03:11:43;;;;;;;2.67;1.60;;;3.30;99.90;2.90;98453.00;;;;4918874;28;98377;-66
2023/02/25 03:14:11;;;;;;;3.10;1.40;;;3.10;99.90;2.90;98459.00;;;;4936124;28;100691;-66
2023/02/25 03:16:47;;;;;;;1.50;1.37;;;3.20;99.90;2.80;98471.00;;;;4936559;28;93143;-67
2023/02/25 03:19:17;;;;;;;2.53;1.33;;;3.10;99.90;2.80;98456.00;;;;4918146;28;93251;-69
2023/02/25 03:21:53;;;;;;;1.60;1.43;;;2.90;99.90;2.80;98477.00;;;;4920587;28;94109;-68
2023/02/25 03:24:31;;;;;;;2.80;1.13;;;3.00;99.90;2.70;98462.00;;;;4922389;28;98335;-68
2023/02/25 03:26:57;;;;;;;1.30;1.17;;;3.00;99.90;2.60;98463.00;;;;4936930;28;92992;-66
2023/02/25 03:29:24;;;;;;;1.43;0.80;;;2.90;99.90;2.60;98459.00;;;;4937039;28;121828;-67
2023/02/25 03:32:03;;;;;;;1.30;1.00;;;2.90;99.90;2.60;98460.00;;;;4938412;28;123558;-66
2023/02/25 03:34:42;;;;;;;1.63;0.70;;;2.90;99.90;2.60;98470.00;;;;4920557;28;95590;-67
2023/02/25 03:37:16;;;;;;;0.93;0.80;;;2.80;99.90;2.60;98474.00;;;;4935125;28;92897;-67
2023/02/25 03:39:46;;;;;;;0.57;0.50;;;2.80;99.90;2.60;98474.00;;;;4918712;28;92919;-66
2023/02/25 03:42:20;;;;;;;2.07;1.13;;;2.80;99.90;2.60;98479.00;;;;4947050;28;93009;-67
2023/02/25 03:44:52;;;;;;;1.10;0.73;;;2.80;99.90;2.60;98475.00;;;;4917664;28;102920;-67
2023/02/25 03:47:19;;;;;;;1.13;0.87;;;2.80;99.90;2.50;98479.00;;;;4915545;28;94110;-67
2023/02/25 03:50:02;;;;;;;2.00;1.13;;;2.80;99.90;2.50;98478.00;;;;4931506;28;93442;-67
2023/02/25 03:52:28;;;;;;;1.20;1.10;;;2.70;99.90;2.50;98475.00;;;;4916464;28;109284;-66
2023/02/25 03:54:57;;;;;;;1.37;0.80;;;2.80;99.90;2.50;98485.00;;;;4919909;28;92709;-67
2023/02/25 03:57:26;;;;;;;11.63;1.77;;;2.70;99.90;2.40;98487.00;;;;4913925;28;93141;-66
2023/02/25 03:59:55;;;;;;;1.37;0.80;;;2.70;99.90;2.40;98488.00;;;;4929182;28;93499;-66
2023/02/25 04:02:28;;;;;;;2.20;0.87;;;3.20;99.90;2.40;98487.00;;;;4932291;28;93749;-67
2023/02/25 04:04:54;;;;;;;3.60;1.07;;;3.30;99.90;2.40;98494.00;;;;4932399;28;100692;-66
2023/02/25 04:07:20;;;;;;;3.40;1.07;;;2.70;99.90;2.40;98505.00;;;;4933372;28;94951;-67
2023/02/25 04:09:45;;;;;;;0.70;0.70;;;2.80;99.90;2.40;98509.00;;;;4939415;28;93750;-67
2023/02/25 04:12:11;;;;;;;1.67;1.20;;;2.60;99.90;2.40;98504.00;;;;4935414;28;123164;-68
2023/02/25 04:14:37;;;;;;;2.27;1.17;;;2.60;99.90;2.40;98493.00;;;;4934032;28;110358;-67
2023/02/25 04:17:04;;;;;;;3.77;1.53;;;2.60;99.90;2.40;98512.00;;;;4933968;28;107069;-68
2023/02/25 04:19:30;;;;;;;3.20;1.43;;;2.60;99.90;2.40;98499.00;;;;4950588;28;92806;-67
2023/02/25 04:21:56;;;;;;;2.77;1.07;;;2.60;99.90;2.40;98514.00;;;;4936413;28;116535;-67
2023/02/25 04:24:22;;;;;;;3.53;1.40;;;2.70;99.90;2.40;98502.00;;;;4934010;28;92956;-68
2023/02/25 04:26:47;;;;;;;1.13;0.93;;;2.70;99.90;2.40;98500.00;;;;4934060;28;107721;-68
2023/02/25 04:29:13;;;;;;;1.33;1.23;;;2.70;99.90;2.40;98512.00;;;;4937425;28;121293;-67
2023/02/25 04:31:39;;;;;;;2.53;1.67;;;2.70;99.90;2.40;98513.00;;;;4936115;28;123310;-67
2023/02/25 04:34:05;;;;;;;1.33;1.23;;;2.70;99.90;2.50;98509.00;;;;4936169;28;111117;-67
2023/02/25 04:36:34;;;;;;;7.33;1.17;;;2.60;99.90;2.50;98510.00;;;;4935946;28;94225;-68
2023/02/25 04:39:03;;;;;;;1.17;1.03;;;2.70;99.90;2.50;98504.00;;;;4942086;28;93968;-68
2023/02/25 04:41:33;;;;;;;1.70;1.50;;;2.70;99.90;2.50;98508.00;;;;4935362;28;114581;-69
2023/02/25 04:44:02;;;;;;;2.17;1.23;;;2.70;99.90;2.50;98505.00;;;;4918240;28;93128;-68
2023/02/25 04:46:29;;;;;;;3.37;1.60;;;2.80;99.90;2.50;98509.00;;;;4936427;28;94217;-68
2023/02/25 04:48:55;;;;;;;2.03;1.53;;;2.70;99.90;2.60;98502.00;;;;4930591;28;110297;-69
2023/02/25 04:51:21;;;;;;;2.37;1.30;;;3.60;99.90;2.60;98507.00;;;;4901118;28;93148;-67
2023/02/25 04:53:46;;;;;;;0.90;0.90;;;3.30;99.90;2.60;98512.00;;;;4937596;28;92311;-68
2023/02/25 04:56:12;;;;;;;2.80;1.43;;;2.80;99.90;2.70;98495.00;;;;4948572;28;92858;-68
2023/02/25 04:58:38;;;;;;;1.90;1.57;;;2.90;99.90;2.70;98510.00;;;;4932401;28;93256;-68
2023/02/25 05:01:07;;;;;;;6.00;1.97;;;2.90;99.90;2.70;98513.00;;;;4931341;28;93745;-67
2023/02/25 05:03:34;;;;;;;3.93;1.30;;;2.90;99.90;2.70;98511.00;;;;4935208;28;92736;-68
2023/02/25 05:06:00;;;;;;;1.37;1.27;;;2.80;99.90;2.70;98509.00;;;;4935352;28;95005;-68
2023/02/25 05:08:26;;;;;;;1.10;1.10;;;3.60;99.90;2.70;98520.00;;;;4933834;28;95283;-70
2023/02/25 05:10:52;;;;;;;5.73;1.33;;;2.90;99.90;2.70;98520.00;;;;4931722;28;121625;-69
2023/02/25 05:13:18;;;;;;;0.80;0.80;;;2.90;99.90;2.70;98515.00;;;;4932450;28;92963;-69
2023/02/25 05:15:44;;;;;;;1.90;0.97;;;3.00;99.90;2.70;98515.00;;;;4943400;28;109474;-68
2023/02/25 05:18:10;;;;;;;2.20;1.23;;;3.00;99.90;2.70;98519.00;;;;4935953;28;107127;-69
2023/02/25 05:20:45;;;;;;;0.67;0.67;;;2.90;99.90;2.70;98527.00;;;;4934019;28;93287;-67
2023/02/25 05:23:11;;;;;;;1.27;1.17;;;2.90;99.90;2.70;98520.00;;;;4929896;28;92964;-69
2023/02/25 05:25:41;;;;;;;2.33;1.20;;;2.90;99.90;2.70;98525.00;;;;4917502;28;94072;-68
2023/02/25 05:28:09;;;;;;;2.60;1.23;;;2.90;99.90;2.70;98528.00;;;;4919231;28;93760;-68
2023/02/25 05:30:37;;;;;;;0.97;0.90;;;2.90;99.90;2.70;98542.00;;;;4935004;28;108246;-69
2023/02/25 05:33:04;;;;;;;2.80;1.97;;;2.90;99.90;2.70;98513.00;;;;4937172;28;92788;-69
2023/02/25 05:35:33;;;;;;;2.57;1.57;;;2.90;99.90;2.70;98541.00;;;;4924501;28;92932;-69
2023/02/25 05:37:59;;;;;;;0.63;0.63;;;2.90;99.90;2.70;98541.00;;;;4934934;28;93109;-68
2023/02/25 05:40:25;;;;;;;2.00;1.40;;;3.00;99.90;2.70;98543.00;;;;4934275;28;115055;-69
2023/02/25 05:42:51;;;;;;;1.57;1.47;;;2.90;99.90;2.70;98549.00;;;;4935772;28;92013;-68
2023/02/25 05:45:17;;;;;;;1.50;1.40;;;2.90;99.90;2.60;98551.00;;;;4912048;28;93150;-69
2023/02/25 05:47:43;;;;;;;2.87;1.27;;;2.90;99.90;2.60;98566.00;;;;4934642;28;104181;-67
2023/02/25 05:50:10;;;;;;;3.13;1.23;;;3.30;99.90;2.60;98559.00;;;;4934632;28;95265;-68
2023/02/25 05:52:35;;;;;;;2.17;1.23;;;2.90;99.90;2.50;98558.00;;;;4947129;28;92729;-68
2023/02/25 05:55:02;;;;;;;1.37;1.10;;;2.80;99.90;2.50;98562.00;;;;4913635;28;92995;-67
2023/02/25 05:57:28;;;;;;;1.33;1.23;;;2.80;99.90;2.40;98579.00;;;;4934825;28;93031;-68
2023/02/25 05:59:54;;;;;;;1.53;1.00;;;2.60;99.90;2.40;98572.00;;;;4934944;28;96699;-68
2023/02/25 06:02:20;;;;;;;1.47;0.70;;;2.70;99.90;2.40;98584.00;;;;4904640;28;95613;-68
2023/02/25 06:04:46;;;;;;;0.93;0.73;;;2.70;99.90;2.30;98574.00;;;;4916607;28;108289;-68
2023/02/25 06:07:13;;;;;;;0.77;0.70;;;2.50;99.90;2.30;98582.00;;;;4914746;28;93709;-69
2023/02/25 06:09:39;;;;;;;3.50;1.17;;;2.50;99.90;2.20;98585.00;;;;4931832;28;98072;-68
2023/02/25 06:12:05;;;;;;;2.13;1.33;;;2.50;99.90;2.20;98588.00;;;;4927740;28;109203;-67
2023/02/25 06:14:31;;;;;;;0.83;0.80;;;2.50;99.90;2.10;98603.00;;;;4918659;28;97763;-68
2023/02/25 06:16:56;;;;;;;3.13;1.37;;;2.40;99.90;2.10;98595.00;;;;4929864;28;123349;-67
2023/02/25 06:19:25;;;;;;;0.70;0.70;;;2.30;99.90;2.10;98594.00;;;;4931320;28;119645;-67
2023/02/25 06:21:54;;;;;;;1.57;0.90;;;2.30;99.90;2.00;98605.00;;;;4934314;28;92939;-66
2023/02/25 06:24:21;;;;;;;1.30;1.03;;;3.20;99.90;2.00;98618.00;;;;4935183;28;94544;-67
2023/02/25 06:26:47;;;;;;;2.93;1.30;;;2.30;99.90;1.90;98612.00;;;;4937494;28;111426;-67
2023/02/25 06:29:13;;;;;;;1.10;0.90;;;2.20;99.90;1.90;98620.00;;;;4935236;28;123367;-66
2023/02/25 06:31:39;;;;;;;1.13;0.97;;;2.20;99.90;1.80;98620.00;;;;4939955;28;93159;-68
2023/02/25 06:34:04;;;;;;;1.27;0.83;;;2.20;99.90;1.80;98626.00;;;;4933069;28;92918;-67
2023/02/25 06:36:31;;;;;;;2.53;1.07;;;2.00;99.90;1.80;98624.00;;;;4932889;28;122129;-67
2023/02/25 06:38:57;;;;;;;0.33;0.33;;;2.20;99.90;1.80;98626.00;;;;4932995;28;94456;-68
2023/02/25 06:41:23;;;;;;;1.37;1.10;;;2.10;99.90;1.80;98633.00;;;;4931371;28;92990;-66
2023/02/25 06:43:50;;;;;;;0.63;0.63;;;2.10;99.90;1.80;98637.00;;;;4933721;28;109504;-67
2023/02/25 06:46:19;;;;;;;2.23;1.00;;;2.00;99.90;1.80;98649.00;;;;4931583;28;94074;-68
2023/02/25 06:48:45;;;;;;;1.03;0.87;;;1.90;99.90;1.80;98656.00;;;;4945210;28;112009;-66
2023/02/25 06:51:11;;;;;;;0.53;0.40;;;2.10;99.90;1.80;98656.00;;;;4929240;28;110583;-67
2023/02/25 06:53:39;;;;;;;0.30;0.30;;;2.10;99.90;1.80;98652.00;;;;4932991;28;93060;-67
2023/02/25 06:56:07;;;;;;;5.93;0.67;;;2.10;99.90;1.80;98656.00;;;;4933309;28;93590;-67
2023/02/25 06:58:33;;;;;;;1.33;0.63;;;2.00;99.90;1.80;98678.00;;;;4934057;28;92821;-66
2023/02/25 07:00:59;;;;;;;0.70;0.60;;;2.00;99.90;1.80;98673.00;;;;4933133;28;104512;-64
2023/02/25 07:03:25;;;;;;;1.67;1.03;;;2.10;99.90;1.80;98689.00;;;;4928119;28;108374;-67
2023/02/25 07:05:51;;;;;;;0.43;0.43;;;2.10;99.90;1.90;98685.00;;;;4932635;28;93765;-65
2023/02/25 07:08:17;;;;;;;1.20;0.90;;;2.20;99.90;1.90;98692.00;;;;4942239;28;123459;-67
2023/02/25 07:10:42;;;;;;;1.10;1.00;;;2.10;99.90;1.90;98684.00;;;;4931423;28;110951;-68
2023/02/25 07:13:09;;;;;;;1.10;1.00;;;2.10;99.90;2.00;98699.00;;;;4928193;28;108221;-66
2023/02/25 07:15:35;;;;;;;1.20;0.70;;;2.10;99.90;2.00;98696.00;;;;4932918;28;93005;-66
2023/02/25 07:18:02;;;;;;;1.00;0.90;;;2.30;99.90;2.00;98703.00;;;;4932790;28;115489;-66
2023/02/25 07:20:28;;;;;;;1.27;0.33;;;2.30;99.90;2.00;98696.00;;;;4934449;28;92133;-66
2023/02/25 07:22:54;;;;;;;0.67;0.63;;;2.30;99.90;2.10;98704.00;;;;4933622;28;92729;-66
2023/02/25 07:25:20;;;;;;;0.97;0.90;;;2.20;99.90;2.10;98717.00;;;;4929437;28;124687;-67
2023/02/25 07:27:46;;;;;;;0.93;0.77;;;2.40;99.90;2.10;98709.00;;;;4941671;28;110485;-66
2023/02/25 07:30:13;;;;;;;1.33;0.50;;;2.40;99.90;2.20;98714.00;;;;4932516;28;110733;-66
2023/02/25 07:32:40;;;;;;;0.97;0.80;;;2.40;99.90;2.20;98717.00;;;;4931541;28;93015;-65
2023/02/25 07:35:07;;;;;;;0.90;0.90;;;2.40;99.90;2.20;98709.00;;;;4931588;28;93934;-66
2023/02/25 07:37:32;;;;;;;1.23;0.97;;;2.40;99.90;2.20;98717.00;;;;4928760;28;103794;-66
2023/02/25 07:39:58;;;;;;;1.97;0.97;;;2.50;99.90;2.30;98728.00;;;;4932407;28;111414;-65
2023/02/25 07:42:26;;;;;;;0.50;0.40;;;2.50;99.90;2.30;98726.00;;;;4934078;28;93002;-66
2023/02/25 07:44:52;;;;;;;1.40;1.00;;;2.50;99.90;2.30;98738.00;;;;4941167;28;92986;-67
2023/02/25 07:47:18;;;;;;;1.17;0.83;;;2.40;99.90;2.30;98729.00;;;;4930219;28;93662;-66
2023/02/25 07:49:44;;;;;;;0.57;0.57;;;2.80;99.90;2.30;98729.00;;;;4928974;28;95240;-67
2023/02/25 07:52:10;;;;;;;0.70;0.70;;;2.50;99.90;2.30;98743.00;;;;4920249;28;94272;-65
2023/02/25 07:54:36;;;;;;;0.53;0.53;;;2.50;99.90;2.30;98741.00;;;;4933325;28;122228;-66
2023/02/25 07:57:02;;;;;;;8.10;0.87;;;2.70;99.90;2.30;98741.00;;;;4933387;28;120529;-66
2023/02/25 07:59:27;;;;;;;2.03;1.10;;;2.60;99.90;2.40;98741.00;;;;4928846;28;92935;-65
2023/02/25 08:01:53;;;;;;;0.67;0.60;;;2.50;99.90;2.40;98748.00;;;;4931845;28;93100;-66
2023/02/25 08:04:19;;;;;;;0.87;0.60;;;2.60;99.90;2.40;98747.00;;;;4943369;28;122383;-67
2023/02/25 08:06:46;;;;;;;0.57;0.57;;;3.60;99.90;2.40;98754.00;;;;4934961;28;93396;-67
2023/02/25 08:09:12;;;;;;;0.67;0.67;;;3.40;99.90;2.40;98755.00;;;;4910894;28;92363;-66
2023/02/25 08:11:39;;;;;;;1.07;0.70;;;3.60;99.90;2.40;98761.00;;;;4931088;28;92886;-66
2023/02/25 08:14:05;;;;;;;1.73;0.67;;;2.50;99.90;2.30;98765.00;;;;4931502;28;94070;-66
2023/02/25 08:16:32;;;;;;;1.60;0.83;;;2.60;99.90;2.40;98760.00;;;;4929241;28;93901;-65
2023/02/25 08:19:01;;;;;;;0.83;0.83;;;2.60;99.90;2.30;98763.00;;;;4914470;28;92953;-66
2023/02/25 08:21:26;;;;;;;0.97;0.97;;;2.60;99.90;2.40;98768.00;;;;4928698;28;94769;-66
2023/02/25 08:23:53;;;;;;;1.20;1.17;;;2.60;99.90;2.40;98761.00;;;;4940182;28;122890;-65
2023/02/25 08:26:21;;;;;;;0.93;0.83;;;2.50;99.90;2.40;98763.00;;;;4930926;28;99049;-65
2023/02/25 08:28:48;;;;;;;3.30;1.30;;;2.60;99.90;2.40;98757.00;;;;4918677;28;93301;-66
2023/02/25 08:31:14;;;;;;;0.70;0.70;;;2.60;99.90;2.40;98776.00;;;;4926716;28;93048;-66
2023/02/25 08:33:43;;;;;;;1.00;0.60;;;2.70;99.90;2.40;98777.00;;;;4930780;28;97392;-67
2023/02/25 08:36:16;;;;;;;3.30;1.23;;;2.70;99.90;2.40;98779.00;;;;4930700;28;94382;-67
2023/02/25 08:38:43;;;;;;;1.33;0.73;;;2.60;99.90;2.40;98779.00;;;;4932711;28;92993;-67
2023/02/25 08:41:09;;;;;;;0.60;0.60;;;2.70;99.90;2.50;98793.00;;;;4940026;28;94157;-66
2023/02/25 08:43:36;;;;;;;3.07;1.10;;;2.70;99.90;2.50;98788.00;;;;4926639;28;121056;-66
2023/02/25 08:46:02;;;;;;;3.20;1.10;;;2.80;99.90;2.50;98804.00;;;;4928848;28;107590;-66
2023/02/25 08:48:28;;;;;;;1.33;0.80;;;2.80;99.90;2.50;98796.00;;;;4931473;28;92788;-67
2023/02/25 08:50:54;;;;;;;1.90;1.20;;;2.70;99.90;2.50;98797.00;;;;4912522;28;93202;-66
2023/02/25 08:53:21;;;;;;;0.70;0.70;;;2.80;99.90;2.50;98809.00;;;;4931149;28;94337;-67
2023/02/25 08:55:47;;;;;;;1.77;1.23;;;3.60;99.90;2.50;98806.00;;;;4925322;28;116434;-67
2023/02/25 08:58:13;;;;;;;5.70;1.23;;;2.90;99.90;2.50;98815.00;;;;4930780;28;96062;-67
2023/02/25 09:00:39;;;;;;;0.67;0.63;;;2.70;99.90;2.60;98809.00;;;;4941384;28;108366;-67
2023/02/25 09:03:05;;;;;;;3.63;1.07;;;3.70;99.90;2.60;98820.00;;;;4931778;28;93754;-67
2023/02/25 09:05:30;;;;;;;2.53;1.27;;;2.80;99.90;2.60;98812.00;;;;4908468;28;111224;-66
2023/02/25 09:07:57;;;;;;;1.50;1.20;;;2.80;99.90;2.70;98815.00;;;;4931803;28;109237;-67
2023/02/25 09:10:23;;;;;;;2.00;1.43;;;2.90;99.90;2.70;98809.00;;;;4932060;28;92749;-67
2023/02/25 09:12:49;;;;;;;2.00;1.47;;;2.90;99.90;2.70;98820.00;;;;4929358;28;124070;-70
2023/02/25 09:15:15;;;;;;;1.57;1.47;;;2.90;99.90;2.70;98822.00;;;;4912353;28;121621;-67
2023/02/25 09:17:40;;;;;;;1.53;1.43;;;3.00;99.90;2.80;98833.00;;;;4926303;28;109661;-66
2023/02/25 09:20:10;;;;;;;2.43;0.83;;;2.90;99.90;2.80;98830.00;;;;4940094;28;94739;-67
2023/02/25 09:22:39;;;;;;;1.50;1.27;;;3.10;99.90;2.80;98829.00;;;;4930187;28;93401;-67
2023/02/25 09:25:06;;;;;;;3.27;1.53;;;3.20;99.90;2.90;98827.00;;;;4913251;28;123061;-66
2023/02/25 09:27:32;;;;;;;5.33;1.60;;;3.20;99.90;2.90;98833.00;;;;4928988;28;93081;-67
2023/02/25 09:29:58;;;;;;;2.33;0.87;;;3.90;99.90;2.90;98828.00;;;;4931956;28;93862;-66
2023/02/25 09:32:24;;;;;;;0.60;0.60;;;3.20;99.90;2.90;98845.00;;;;4929362;28;123062;-68
2023/02/25 09:34:49;;;;;;;0.93;0.83;;;3.10;99.90;2.90;98832.00;;;;4914154;28;94765;-66
2023/02/25 09:37:18;;;;;;;3.20;1.47;;;3.10;99.90;2.90;98860.00;;;;4938883;28;93395;-67
2023/02/25 09:39:45;;;;;;;0.90;0.90;;;3.10;99.90;2.80;98855.00;;;;4929518;28;92876;-67
2023/02/25 09:42:18;;;;;;;1.40;1.10;;;3.00;99.90;2.70;98862.00;;;;4927393;28;94182;-67
2023/02/25 09:44:59;;;;;;;4.10;1.40;;;3.00;99.90;2.70;98863.00;;;;4914697;28;116521;-66
2023/02/25 09:47:36;;;;;;;1.37;0.90;;;3.00;99.90;2.70;98854.00;;;;4910859;28;92419;-67
2023/02/25 09:50:20;;;;;;;1.13;0.83;;;2.90;99.90;2.70;98866.00;;;;4912482;28;94934;-66
2023/02/25 09:53:01;;;;;;;0.83;0.80;;;3.00;99.90;2.70;98874.00;;;;4932377;28;93413;-65
2023/02/25 09:55:37;;;;;;;1.03;0.80;;;3.00;99.90;2.70;98877.00;;;;4928111;28;93928;-66
2023/02/25 09:58:23;;;;;;;1.03;0.80;;;3.00;99.90;2.80;98890.00;;;;4936791;28;102746;-66
2023/02/25 10:00:54;;;;;;;1.33;0.80;;;3.00;99.90;2.80;98882.00;;;;4930115;28;92897;-68
2023/02/25 10:03:36;;;;;;;1.20;1.10;;;3.00;99.90;2.80;98882.00;;;;4930458;28;111313;-66
2023/02/25 10:06:18;;;;;;;1.27;1.13;;;3.00;99.90;2.80;98891.00;;;;4913493;28;93334;-66
2023/02/25 10:09:11;;;;;;;0.60;0.50;;;3.10;99.90;2.80;98900.00;;;;4914516;28;92961;-66
2023/02/25 10:11:46;;;;;;;3.50;0.77;;;3.10;99.90;2.80;98893.00;;;;4929640;28;92875;-66
2023/02/25 10:14:49;;;;;;;1.07;0.97;;;3.00;99.90;2.70;98906.00;;;;4927606;28;93544;-66
2023/02/25 10:17:48;;;;;;;0.60;0.60;;;3.00;99.90;2.70;98907.00;;;;4929439;28;93073;-66
2023/02/25 10:20:38;;;;;;;2.07;0.80;;;3.00;99.90;2.70;98909.00;;;;4930944;28;93036;-66
2023/02/25 10:23:34;;;;;;;0.80;0.40;;;3.00;99.90;2.90;98911.00;;;;4934164;28;93916;-65
2023/02/25 10:26:23;;;;;;;1.07;0.73;;;3.00;99.90;3.00;98922.00;;;;4909461;28;93792;-65
2023/02/25 10:28:54;;;;;;;6.03;0.83;;;3.30;99.90;3.10;98912.00;;;;4930773;28;93164;-68
2023/02/25 10:31:22;;;;;;;0.67;0.53;;;3.30;99.90;3.10;98941.00;;;;4912925;28;103456;-66
2023/02/25 10:33:50;;;;;;;0.77;0.70;;;3.30;99.90;3.20;98938.00;;;;4943293;28;94852;-66
2023/02/25 10:36:17;;;;;;;0.50;0.50;;;3.80;99.90;3.20;98932.00;;;;4924803;28;93152;-66
2023/02/25 10:38:52;;;;;;;2.43;0.40;;;3.40;99.90;3.20;98938.00;;;;4930363;28;122526;-66
2023/02/25 10:41:22;;;;;;;2.10;0.80;;;3.40;99.90;3.20;98940.00;;;;4927651;28;92306;-66
2023/02/25 10:43:50;;;;;;;0.53;0.50;;;3.50;99.90;3.20;98937.00;;;;4929348;28;92892;-67
2023/02/25 10:46:33;;;;;;;0.40;0.40;;;3.30;99.90;3.20;98943.00;;;;4911287;28;94164;-66
2023/02/25 10:49:02;;;;;;;0.30;0.30;;;3.40;99.90;3.20;98938.00;;;;4928333;28;94081;-69
2023/02/25 10:51:28;;;;;;;0.13;0.13;;;3.40;99.90;3.20;98961.00;;;;4910905;28;92940;-68
2023/02/25 10:54:02;;;;;;;1.00;0.50;;;4.40;99.90;3.10;98965.00;;;;4941479;28;92769;-68
2023/02/25 10:56:37;;;;;;;2.03;0.50;;;3.30;99.90;3.10;98957.00;;;;4928966;28;94587;-67
2023/02/25 10:59:26;;;;;;;1.17;0.70;;;3.40;99.90;3.10;98960.00;;;;4930333;28;95858;-67
2023/02/25 11:01:53;;;;;;;1.17;0.60;;;3.30;99.90;3.10;98971.00;;;;4916930;28;92720;-68
2023/02/25 11:04:27;;;;;;;0.40;0.40;;;3.40;99.90;3.10;98974.00;;;;4930166;28;94455;-68
2023/02/25 11:06:53;;;;;;;0.20;0.20;;;3.30;99.90;3.10;98974.00;;;;4916190;28;92442;-69
2023/02/25 11:09:19;;;;;;;0.73;0.53;;;3.30;99.90;3.10;98975.00;;;;4933422;28;109757;-69
2023/02/25 11:12:08;;;;;;;0.40;0.40;;;3.40;99.90;3.00;98979.00;;;;4942215;28;94880;-68
2023/02/25 11:14:36;;;;;;;0.40;0.40;;;3.30;99.90;2.90;98987.00;;;;4931980;28;94264;-68
2023/02/25 11:17:19;;;;;;;0.20;0.20;;;3.10;99.90;2.90;98985.00;;;;4926139;28;116792;-69
2023/02/25 11:19:50;;;;;;;0.10;0.10;;;3.20;99.90;2.90;98982.00;;;;4911717;28;93148;-66